Time;durP1;ratioP1;P1;durP2;ratioP2;P2;SDS_P1;SDS_P2;PMS_P1;PMS_P2;Temp;Humidity;BMP_temperature;BMP_pressure;BME280_temperature;BME280_humidity;BME280_pressure;Samples;Min_cycle;Max_cycle;Signal;HPM_P1;HPM_P2
2023/06/17 00:02:07;;;;;;;;;27.50;27.50;;;;;24.87;36.13;100639.03;5077278;27;45371;-71
2023/06/17 00:04:33;;;;;;;;;23.50;22.00;;;;;24.84;35.78;100636.66;5077314;27;45289;-71
2023/06/17 00:06:58;;;;;;;;;24.00;24.00;;;;;24.87;36.13;100638.16;5075162;27;48226;-71
2023/06/17 00:09:25;;;;;;;;;28.25;28.00;;;;;24.95;36.06;100643.66;5076859;27;45408;-71
2023/06/17 00:11:51;;;;;;;;;26.75;26.75;;;;;24.96;35.85;100644.47;5076586;27;45176;-70
2023/06/17 00:14:17;;;;;;;;;24.50;24.00;;;;;24.84;36.12;100615.13;5076509;27;45206;-71
2023/06/17 00:16:46;;;;;;;;;21.00;20.75;;;;;24.97;35.68;100636.25;5076529;27;45315;-71
2023/06/17 00:19:15;;;;;;;;;21.00;21.00;;;;;24.92;35.94;100631.34;5075119;28;45372;-71
2023/06/17 00:21:42;;;;;;;;;27.75;27.75;;;;;24.93;35.84;100629.50;5076593;27;45429;-71
2023/06/17 00:24:07;;;;;;;;;25.50;25.50;;;;;24.93;35.81;100634.88;5077103;27;45259;-71
2023/06/17 00:26:33;;;;;;;;;32.00;30.75;;;;;24.88;35.79;100624.56;5075166;28;47137;-71
2023/06/17 00:28:58;;;;;;;;;22.00;22.00;;;;;24.87;36.00;100622.88;5076714;27;45270;-73
2023/06/17 00:31:24;;;;;;;;;23.75;23.75;;;;;24.78;36.11;100607.69;5076615;27;45235;-71
2023/06/17 00:33:49;;;;;;;;;21.50;21.50;;;;;24.81;36.15;100620.81;5076761;27;45693;-72
2023/06/17 00:36:14;;;;;;;;;29.00;29.00;;;;;24.83;36.15;100620.66;5076112;27;47245;-72
2023/06/17 00:38:40;;;;;;;;;23.50;23.50;;;;;24.78;36.29;100610.38;5076525;27;45215;-71
2023/06/17 00:41:05;;;;;;;;;22.25;22.25;;;;;24.70;36.38;100607.56;5075097;27;45857;-72
2023/06/17 00:43:30;;;;;;;;;32.50;31.25;;;;;24.72;36.80;100611.78;5076796;27;45333;-71
2023/06/17 00:45:56;;;;;;;;;26.25;25.50;;;;;24.72;36.35;100614.47;5075712;27;57737;-72
2023/06/17 00:48:21;;;;;;;;;22.25;22.25;;;;;24.56;36.76;100588.28;5074815;28;45503;-71
2023/06/17 00:50:49;;;;;;;;;24.75;24.50;;;;;24.67;36.71;100602.50;5076280;28;45807;-72
2023/06/17 00:53:15;;;;;;;;;23.50;23.50;;;;;24.60;36.57;100591.50;5058677;28;45400;-72
2023/06/17 00:55:41;;;;;;;;;21.50;21.50;;;;;24.60;36.45;100592.34;5076381;27;45432;-72
2023/06/17 00:58:06;;;;;;;;;21.50;21.50;;;;;24.53;37.05;100580.53;5075948;27;45313;-71
2023/06/17 01:00:31;;;;;;;;;23.25;23.25;;;;;24.46;36.98;100571.38;5076129;27;45392;-72
2023/06/17 01:02:58;;;;;;;;;25.75;25.75;;;;;24.49;37.15;100576.44;5076354;27;45247;-71
2023/06/17 01:05:24;;;;;;;;;24.75;24.75;;;;;24.48;36.63;100582.81;5075922;27;46423;-72
2023/06/17 01:07:57;;;;;;;;;20.50;20.50;;;;;24.44;37.04;100581.44;5076019;27;45239;-71
2023/06/17 01:10:42;;;;;;;;;19.50;19.50;;;;;24.40;36.61;100580.88;5075778;27;45360;-72
2023/06/17 01:13:09;;;;;;;;;23.25;22.50;;;;;24.31;36.69;100563.00;5076325;27;45307;-72
2023/06/17 01:15:36;;;;;;;;;18.75;18.75;;;;;24.34;37.17;100566.19;5075730;27;46138;-72
2023/06/17 01:18:07;;;;;;;;;18.50;18.50;;;;;24.34;37.50;100562.69;5075767;27;45383;-72
2023/06/17 01:20:32;;;;;;;;;22.50;22.50;;;;;24.34;37.10;100576.13;5075905;27;45408;-73
2023/06/17 01:22:59;;;;;;;;;21.75;21.75;;;;;24.32;37.48;100572.75;5076212;27;45403;-71
2023/06/17 01:25:29;;;;;;;;;22.75;22.75;;;;;24.31;37.44;100581.81;5075101;27;45431;-71
2023/06/17 01:28:00;;;;;;;;;19.00;19.00;;;;;24.27;37.57;100580.41;5075456;27;45367;-72
2023/06/17 01:30:30;;;;;;;;;20.00;20.00;;;;;24.24;37.49;100572.66;5075790;27;45404;-72
2023/06/17 01:32:59;;;;;;;;;23.00;23.00;;;;;24.21;37.68;100571.09;5076147;27;45597;-72
2023/06/17 01:35:31;;;;;;;;;24.75;24.75;;;;;24.19;37.82;100576.66;5074275;28;47397;-72
2023/06/17 01:38:07;;;;;;;;;20.00;20.00;;;;;24.13;37.62;100568.34;5075794;27;45400;-72
2023/06/17 01:40:34;;;;;;;;;21.75;21.75;;;;;24.16;38.00;100576.09;5074290;28;45237;-72
2023/06/17 01:43:02;;;;;;;;;20.25;20.25;;;;;24.03;37.54;100554.97;5091625;27;45341;-72
2023/06/17 01:45:30;;;;;;;;;22.25;22.25;;;;;24.14;37.71;100570.03;5075532;27;46468;-70
2023/06/17 01:47:55;;;;;;;;;20.50;20.50;;;;;24.14;37.66;100565.50;5075621;27;46057;-71
2023/06/17 01:50:20;;;;;;;;;21.00;21.00;;;;;24.11;37.77;100557.75;5073946;28;45189;-71
2023/06/17 01:52:46;;;;;;;;;21.75;21.75;;;;;24.11;38.54;100556.88;5075978;27;45522;-71
2023/06/17 01:55:12;;;;;;;;;20.75;20.75;;;;;24.07;38.18;100554.50;5075704;27;45438;-70
2023/06/17 01:57:37;;;;;;;;;21.75;21.75;;;;;24.09;38.51;100558.88;5075460;27;45341;-72
2023/06/17 02:00:05;;;;;;;;;20.75;20.75;;;;;24.01;38.44;100544.38;5075579;27;45328;-71
2023/06/17 02:02:30;;;;;;;;;23.75;23.75;;;;;24.00;38.38;100550.72;5074057;27;45347;-71
2023/06/17 02:04:55;;;;;;;;;20.75;20.75;;;;;24.00;38.74;100545.34;5074987;27;46449;-71
2023/06/17 02:07:25;;;;;;;;;20.00;20.00;;;;;23.97;38.50;100556.38;5073896;28;45392;-72
2023/06/17 02:09:51;;;;;;;;;21.25;21.25;;;;;23.93;38.99;100552.28;5075103;27;45319;-71
2023/06/17 02:12:16;;;;;;;;;25.25;25.25;;;;;23.89;38.73;100553.59;5075738;27;45357;-70
2023/06/17 02:14:42;;;;;;;;;20.75;20.75;;;;;23.88;38.55;100555.44;5075326;28;45376;-71
2023/06/17 02:17:11;;;;;;;;;32.75;31.00;;;;;23.85;39.18;100554.88;5074953;27;45227;-71
2023/06/17 02:19:39;;;;;;;;;26.50;25.75;;;;;23.81;39.26;100550.81;5073866;27;45396;-71
2023/06/17 02:22:05;;;;;;;;;23.75;23.75;;;;;23.77;39.10;100547.56;5075260;28;45220;-71
2023/06/17 02:24:30;;;;;;;;;23.00;23.00;;;;;23.77;39.33;100553.78;5075141;27;46289;-73
2023/06/17 02:26:56;;;;;;;;;21.50;21.50;;;;;23.77;39.22;100556.47;5075068;27;45236;-71
2023/06/17 02:29:22;;;;;;;;;23.50;23.50;;;;;23.73;39.08;100555.09;5075335;27;45274;-71
2023/06/17 02:31:48;;;;;;;;;24.50;24.50;;;;;23.71;39.48;100546.34;5075978;28;45964;-71
2023/06/17 02:34:13;;;;;;;;;22.25;22.25;;;;;23.68;39.32;100549.31;5075436;27;45331;-71
2023/06/17 02:36:39;;;;;;;;;22.75;22.50;;;;;23.64;39.28;100538.00;5074825;27;45410;-71
2023/06/17 02:39:05;;;;;;;;;19.00;19.00;;;;;23.68;39.69;100538.56;5078270;27;45405;-71
2023/06/17 02:41:31;;;;;;;;;19.00;19.00;;;;;23.65;39.80;100536.19;5078639;27;45431;-71
2023/06/17 02:43:57;;;;;;;;;27.50;26.75;;;;;23.61;39.27;100521.38;5077003;28;47056;-71
2023/06/17 02:46:25;;;;;;;;;25.25;25.25;;;;;23.62;39.47;100529.25;5078398;27;45453;-72
2023/06/17 02:48:50;;;;;;;;;20.00;20.00;;;;;23.61;39.89;100521.38;5078423;27;45345;-71
2023/06/17 02:51:16;;;;;;;;;20.25;20.25;;;;;23.57;39.83;100523.50;5078829;27;45227;-71
2023/06/17 02:53:41;;;;;;;;;23.00;23.00;;;;;23.59;39.91;100524.19;5077977;27;46777;-72
2023/06/17 02:56:06;;;;;;;;;21.75;21.75;;;;;23.53;39.47;100516.72;5078088;27;45452;-71
2023/06/17 02:58:32;;;;;;;;;30.50;29.75;;;;;23.49;39.68;100509.97;5078327;27;45231;-72
2023/06/17 03:00:57;;;;;;;;;18.25;18.25;;;;;23.54;40.04;100514.91;5078685;27;45301;-71
2023/06/17 03:03:33;;;;;;;;;20.25;20.25;;;;;23.52;39.69;100516.91;5078195;27;45334;-70
2023/06/17 03:06:01;;;;;;;;;21.75;21.75;;;;;23.48;40.13;100506.44;5078360;27;45227;-72
2023/06/17 03:08:28;;;;;;;;;19.50;19.50;;;;;23.49;39.79;100510.81;5077967;27;45346;-72
2023/06/17 03:10:53;;;;;;;;;28.75;28.75;;;;;23.48;40.25;100505.59;5076958;28;45731;-71
2023/06/17 03:13:18;;;;;;;;;21.50;21.50;;;;;23.46;40.03;100502.22;5093579;27;57418;-72
2023/06/17 03:15:44;;;;;;;;;22.00;22.00;;;;;23.35;40.44;100484.47;5077881;27;45236;-72
2023/06/17 03:18:09;;;;;;;;;21.25;21.25;;;;;23.42;40.65;100500.81;5077899;27;45760;-71
2023/06/17 03:20:35;;;;;;;;;22.25;22.25;;;;;23.41;40.44;100504.50;5076828;27;45432;-71
2023/06/17 03:23:02;;;;;;;;;19.75;19.75;;;;;23.34;40.25;100507.78;5078060;27;45401;-72
2023/06/17 03:25:27;;;;;;;;;19.00;19.00;;;;;23.33;40.29;100502.56;5078088;27;45264;-72
2023/06/17 03:27:53;;;;;;;;;22.00;22.00;;;;;23.40;40.80;100518.91;5077798;27;45389;-72
2023/06/17 03:30:18;;;;;;;;;24.75;24.75;;;;;23.36;40.57;100515.69;5078444;27;45582;-71
2023/06/17 03:32:44;;;;;;;;;22.25;22.25;;;;;23.37;40.96;100511.16;5077681;27;46244;-71
2023/06/17 03:35:10;;;;;;;;;23.00;23.00;;;;;23.39;41.27;100518.06;5077535;27;45215;-71
2023/06/17 03:37:35;;;;;;;;;21.50;21.50;;;;;23.34;40.93;100504.25;5077883;27;45350;-71
2023/06/17 03:40:00;;;;;;;;;21.75;21.00;;;;;23.34;41.46;100510.44;5077850;27;45591;-71
2023/06/17 03:42:26;;;;;;;;;21.25;21.25;;;;;23.34;41.28;100506.94;5077581;27;46175;-72
2023/06/17 03:44:51;;;;;;;;;23.75;23.25;;;;;23.31;41.23;100501.84;5077885;27;45263;-71
2023/06/17 03:47:16;;;;;;;;;21.25;20.50;;;;;23.31;41.53;100504.53;5077527;27;45346;-71
2023/06/17 03:49:44;;;;;;;;;20.75;20.75;;;;;23.29;41.40;100501.13;5075442;27;45408;-71
2023/06/17 03:52:09;;;;;;;;;22.50;22.50;;;;;23.29;41.13;100502.00;5077314;27;46263;-70
2023/06/17 03:54:34;;;;;;;;;18.75;18.75;;;;;23.31;41.42;100512.56;5077425;27;45398;-70
2023/06/17 03:57:00;;;;;;;;;19.25;19.25;;;;;23.25;41.04;100494.38;5077355;27;45382;-71
2023/06/17 03:59:25;;;;;;;;;21.50;21.50;;;;;23.25;41.52;100508.66;5076208;28;45393;-72
2023/06/17 04:01:51;;;;;;;;;22.00;22.00;;;;;23.20;41.57;100509.03;5077554;27;45536;-72
2023/06/17 04:04:16;;;;;;;;;22.00;22.00;;;;;23.18;41.77;100502.16;5077308;27;45325;-70
2023/06/17 04:06:41;;;;;;;;;21.00;21.00;;;;;23.23;41.62;100507.91;5077393;27;45451;-71
2023/06/17 04:09:06;;;;;;;;;23.00;23.00;;;;;23.22;42.13;100508.91;5076578;28;53706;-74
2023/06/17 04:11:32;;;;;;;;;18.50;18.50;;;;;23.23;41.97;100518.66;5076813;27;46601;-71
2023/06/17 04:13:59;;;;;;;;;20.00;20.00;;;;;23.22;41.64;100513.41;5077017;27;45783;-71
2023/06/17 04:16:24;;;;;;;;;21.00;21.00;;;;;23.24;41.54;100517.69;5077481;27;45303;-71
2023/06/17 04:18:50;;;;;;;;;22.25;22.25;;;;;23.25;41.54;100521.22;5077639;27;45207;-71
2023/06/17 04:21:16;;;;;;;;;22.50;22.50;;;;;23.18;41.96;100502.97;5075434;28;47623;-71
2023/06/17 04:23:42;;;;;;;;;19.75;19.75;;;;;23.22;42.04;100510.72;5076908;27;45401;-71
2023/06/17 04:26:07;;;;;;;;;20.00;20.00;;;;;23.19;41.89;100503.84;5076741;28;45442;-71
2023/06/17 04:28:34;;;;;;;;;20.00;20.00;;;;;23.19;41.96;100507.34;5077071;27;45392;-71
2023/06/17 04:31:01;;;;;;;;;19.75;19.75;;;;;23.20;42.03;100513.59;5075322;28;47171;-71
2023/06/17 04:33:27;;;;;;;;;21.50;21.50;;;;;23.18;42.04;100513.72;5076763;27;45344;-71
2023/06/17 04:35:53;;;;;;;;;21.25;21.25;;;;;23.18;42.12;100515.56;5075477;27;45334;-70
2023/06/17 04:38:20;;;;;;;;;21.00;21.00;;;;;23.15;42.32;100505.94;5075502;28;45267;-71
2023/06/17 04:40:45;;;;;;;;;19.25;19.25;;;;;23.16;42.29;100522.91;5076798;27;46484;-72
2023/06/17 04:43:10;;;;;;;;;22.00;22.00;;;;;23.15;42.56;100515.84;5092118;27;45349;-72
2023/06/17 04:45:36;;;;;;;;;20.50;20.50;;;;;23.16;42.26;100520.22;5076523;27;45297;-71
2023/06/17 04:48:05;;;;;;;;;21.75;21.75;;;;;23.17;42.16;100514.69;5076191;27;46753;-71
2023/06/17 04:50:31;;;;;;;;;19.00;19.00;;;;;23.18;42.23;100512.88;5076296;27;45793;-71
2023/06/17 04:53:03;;;;;;;;;18.50;18.50;;;;;23.20;42.41;100518.94;5076343;27;45341;-72
2023/06/17 04:55:29;;;;;;;;;21.75;21.75;;;;;23.19;42.77;100501.16;5076316;27;45338;-72
2023/06/17 04:57:54;;;;;;;;;21.00;21.00;;;;;23.25;42.15;100508.66;5076575;27;45313;-70
2023/06/17 05:00:19;;;;;;;;;21.00;21.00;;;;;23.27;42.32;100503.97;5075757;27;47010;-72
2023/06/17 05:02:45;;;;;;;;;25.00;25.00;;;;;23.26;42.44;100504.97;5075934;27;45306;-70
2023/06/17 05:05:10;;;;;;;;;24.25;23.50;;;;;23.28;42.10;100507.50;5074582;28;45513;-70
2023/06/17 05:07:36;;;;;;;;;22.25;22.25;;;;;23.31;42.11;100501.84;5076321;27;45376;-70
2023/06/17 05:10:02;;;;;;;;;19.00;19.00;;;;;23.32;42.37;100501.72;5075666;28;45672;-71
2023/06/17 05:12:27;;;;;;;;;23.00;23.00;;;;;23.33;42.22;100502.56;5075852;27;45343;-71
2023/06/17 05:14:53;;;;;;;;;24.25;24.25;;;;;23.38;42.38;100500.28;5075861;28;50968;-70
2023/06/17 05:17:18;;;;;;;;;23.75;23.75;;;;;23.40;42.73;100500.97;5075902;27;45204;-70
2023/06/17 05:19:43;;;;;;;;;22.00;22.00;;;;;23.45;42.51;100501.38;5075434;28;52305;-71
2023/06/17 05:22:09;;;;;;;;;20.75;20.75;;;;;23.52;42.46;100496.25;5075531;27;45263;-72
2023/06/17 05:24:34;;;;;;;;;20.75;20.75;;;;;23.60;41.88;100498.19;5075659;27;45573;-70
2023/06/17 05:27:00;;;;;;;;;22.25;22.25;;;;;23.62;42.15;100491.69;5074353;28;45389;-71
2023/06/17 05:29:25;;;;;;;;;21.00;21.00;;;;;23.73;42.20;100500.53;5075820;28;46816;-71
2023/06/17 05:31:51;;;;;;;;;24.00;24.00;;;;;23.80;42.04;100504.28;5075719;27;45302;-70
2023/06/17 05:34:17;;;;;;;;;19.25;19.25;;;;;23.84;41.92;100494.09;5075964;27;45477;-71
2023/06/17 05:36:42;;;;;;;;;21.00;21.00;;;;;23.92;41.38;100489.69;5075607;27;45386;-72
2023/06/17 05:39:07;;;;;;;;;18.50;18.50;;;;;24.03;41.27;100495.88;5075423;27;45369;-71
2023/06/17 05:41:33;;;;;;;;;19.25;18.00;;;;;24.14;41.22;100492.97;5075246;27;45956;-71
2023/06/17 05:43:58;;;;;;;;;19.00;19.00;;;;;24.24;41.42;100495.56;5075707;27;45340;-71
2023/06/17 05:46:23;;;;;;;;;21.25;21.25;;;;;24.33;40.50;100491.09;5075276;27;45573;-71
2023/06/17 05:48:49;;;;;;;;;18.00;18.00;;;;;24.38;40.30;100493.31;5073779;27;46135;-71
2023/06/17 05:51:16;;;;;;;;;21.50;21.50;;;;;24.48;40.51;100496.78;5075380;27;45331;-72
2023/06/17 05:53:41;;;;;;;;;16.75;16.75;;;;;24.53;40.59;100494.50;5074283;28;45289;-71
2023/06/17 05:56:09;;;;;;;;;20.50;20.50;;;;;24.60;40.24;100492.88;5074247;28;45647;-71
2023/06/17 05:58:34;;;;;;;;;17.50;17.00;;;;;24.61;40.17;100488.31;5075205;27;46207;-71
2023/06/17 06:01:00;;;;;;;;;17.25;17.25;;;;;24.60;39.88;100492.88;5074571;28;45349;-71
2023/06/17 06:03:25;;;;;;;;;18.00;18.00;;;;;24.65;40.22;100497.75;5074292;27;45369;-72
2023/06/17 06:05:50;;;;;;;;;20.25;20.25;;;;;24.61;39.99;100502.63;5075742;27;46048;-71
2023/06/17 06:08:16;;;;;;;;;20.50;20.50;;;;;24.62;40.09;100506.13;5075374;27;45508;-71
2023/06/17 06:10:41;;;;;;;;;20.75;20.75;;;;;24.64;39.71;100501.44;5075389;27;45469;-71
2023/06/17 06:13:06;;;;;;;;;18.00;18.00;;;;;24.68;39.97;100502.81;5073298;28;45359;-71
2023/06/17 06:15:32;;;;;;;;;20.00;20.00;;;;;24.74;39.76;100512.97;5075329;27;45579;-70
2023/06/17 06:17:57;;;;;;;;;21.00;21.00;;;;;24.79;40.04;100516.06;5074977;27;45306;-71
2023/06/17 06:20:23;;;;;;;;;23.25;23.25;;;;;24.83;39.73;100507.66;5074915;27;45438;-72
2023/06/17 06:22:48;;;;;;;;;21.50;21.50;;;;;24.89;39.95;100515.97;5074994;27;45484;-72
2023/06/17 06:25:13;;;;;;;;;21.00;21.00;;;;;24.89;39.84;100520.47;5075226;27;45270;-73
2023/06/17 06:27:39;;;;;;;;;19.25;19.25;;;;;24.90;39.75;100508.72;5074880;27;45361;-71
2023/06/17 06:30:05;;;;;;;;;36.50;32.50;;;;;25.00;40.25;100522.94;5074797;27;45410;-72
2023/06/17 06:32:30;;;;;;;;;20.50;19.75;;;;;25.02;39.95;100506.63;5074916;27;45460;-72
2023/06/17 06:34:55;;;;;;;;;23.75;22.75;;;;;25.05;40.03;100506.31;5075399;27;45176;-71
2023/06/17 06:37:21;;;;;;;;;22.00;22.00;;;;;25.14;39.70;100524.19;5074423;27;53076;-73
2023/06/17 06:39:46;;;;;;;;;18.00;18.00;;;;;25.18;39.78;100520.19;5074921;27;45333;-73
2023/06/17 06:42:11;;;;;;;;;18.75;18.75;;;;;25.26;39.71;100526.63;5075164;27;45348;-74
2023/06/17 06:44:37;;;;;;;;;19.50;19.50;;;;;25.29;39.85;100521.78;5075181;27;45473;-73
2023/06/17 06:47:03;;;;;;;;;21.50;21.50;;;;;25.40;39.24;100523.31;5074582;27;45269;-72
2023/06/17 06:49:28;;;;;;;;;17.50;17.50;;;;;25.48;38.78;100523.41;5074896;27;45395;-72
2023/06/17 06:51:54;;;;;;;;;0.00;0.00;;;;;25.52;38.80;100514.00;5074897;28;45267;-73
2023/06/17 06:54:19;;;;;;;;;18.50;18.50;;;;;25.66;38.36;100523.31;5074625;27;45205;-73
2023/06/17 06:56:45;;;;;;;;;19.75;19.75;;;;;25.75;38.10;100536.81;5063349;27;46121;-72
2023/06/17 06:59:10;;;;;;;;;50.75;42.50;;;;;25.80;38.28;100529.09;5053905;28;45237;-74
2023/06/17 07:01:35;;;;;;;;;22.00;22.00;;;;;25.92;38.26;100543.13;5053437;28;52319;-75
2023/06/17 07:04:01;;;;;;;;;17.75;17.75;;;;;25.98;37.61;100537.06;5054735;28;45296;-71
2023/06/17 07:06:26;;;;;;;;;21.00;21.00;;;;;26.06;38.10;100545.16;5053988;28;46438;-71
2023/06/17 07:08:51;;;;;;;;;19.75;19.75;;;;;26.18;37.77;100542.19;5052395;28;55396;-73
2023/06/17 07:11:17;;;;;;;;;18.50;18.50;;;;;26.24;37.48;100541.53;5053614;28;45318;-73
2023/06/17 07:13:42;;;;;;;;;16.75;16.75;;;;;26.27;37.04;100534.97;5053337;28;45358;-74
2023/06/17 07:16:07;;;;;;;;;17.75;17.75;;;;;26.35;36.96;100543.06;5053160;28;46256;-73
2023/06/17 07:18:33;;;;;;;;;20.25;20.25;;;;;26.38;36.88;100530.09;5052858;28;46534;-73
2023/06/17 07:20:58;;;;;;;;;18.00;18.00;;;;;26.50;36.77;100540.53;5053483;28;45323;-74
2023/06/17 07:23:24;;;;;;;;;20.50;20.50;;;;;26.57;36.71;100540.72;5053282;28;45557;-73
2023/06/17 07:25:49;;;;;;;;;18.00;18.00;;;;;26.65;37.02;100538.91;5055208;28;46678;-73
2023/06/17 07:28:15;;;;;;;;;21.50;21.50;;;;;26.73;36.88;100542.59;5053236;28;45515;-73
2023/06/17 07:30:40;;;;;;;;;22.00;21.50;;;;;26.82;36.32;100545.09;5051979;28;45583;-70
2023/06/17 07:33:06;;;;;;;;;17.75;17.75;;;;;26.89;36.51;100542.63;5056369;28;45307;-70
2023/06/17 07:35:32;;;;;;;;;16.00;16.00;;;;;26.94;36.22;100544.78;5056387;28;45307;-73
2023/06/17 07:37:57;;;;;;;;;19.25;19.25;;;;;26.92;36.47;100528.78;5048285;28;45426;-73
2023/06/17 07:40:23;;;;;;;;;16.00;16.00;;;;;27.09;36.32;100544.94;5040707;28;45255;-77
2023/06/17 07:42:48;;;;;;;;;19.50;19.50;;;;;27.11;36.13;100538.38;5036586;28;45491;-77
2023/06/17 07:45:14;;;;;;;;;18.25;18.25;;;;;27.20;36.27;100546.47;5040068;28;45443;-77
2023/06/17 07:47:40;;;;;;;;;18.00;17.75;;;;;27.15;36.30;100533.47;5050186;28;45584;-75
2023/06/17 07:50:08;;;;;;;;;19.25;19.25;;;;;27.26;36.00;100552.00;5041098;28;45396;-74
2023/06/17 07:52:35;;;;;;;;;16.25;16.25;;;;;26.85;36.24;100475.66;5053491;28;45315;-76
2023/06/17 07:55:00;;;;;;;;;21.25;21.25;;;;;27.32;36.07;100550.47;5053189;28;47547;-74
2023/06/17 07:57:26;;;;;;;;;20.00;20.00;;;;;27.35;35.68;100539.34;5055852;28;45873;-73
2023/06/17 07:59:51;;;;;;;;;17.50;17.50;;;;;27.37;36.11;100548.09;5057024;28;45957;-72
2023/06/17 08:02:16;;;;;;;;;16.00;16.00;;;;;27.41;36.14;100543.19;5050286;28;45666;-72
2023/06/17 08:04:42;;;;;;;;;14.25;14.25;;;;;27.47;36.18;100547.88;5052393;28;45672;-71
2023/06/17 08:07:07;;;;;;;;;17.00;17.00;;;;;27.51;35.93;100543.03;5052135;28;45398;-76
2023/06/17 08:09:32;;;;;;;;;17.75;17.75;;;;;27.50;36.04;100536.75;5036594;28;45497;-74
2023/06/17 08:11:58;;;;;;;;;16.25;16.25;;;;;27.56;36.12;100546.88;5036144;28;45385;-72
2023/06/17 08:14:24;;;;;;;;;18.00;18.00;;;;;27.59;35.68;100542.16;5054224;28;45562;-72
2023/06/17 08:16:49;;;;;;;;;21.00;21.00;;;;;27.69;35.75;100542.78;5050512;28;45212;-72
2023/06/17 08:19:14;;;;;;;;;21.00;21.00;;;;;27.83;36.16;100546.59;5059066;28;45254;-73
2023/06/17 08:21:42;;;;;;;;;19.00;19.00;;;;;27.92;35.87;100531.19;5065259;27;45528;-72
2023/06/17 08:24:24;;;;;;;;;20.00;20.00;;;;;28.05;35.84;100533.31;5053897;28;46347;-72
2023/06/17 08:26:51;;;;;;;;;16.00;16.00;;;;;28.08;35.83;100533.81;5056554;28;45326;-74
2023/06/17 08:29:17;;;;;;;;;18.25;18.25;;;;;28.10;35.58;100522.78;5056184;28;45420;-76
2023/06/17 08:31:45;;;;;;;;;16.00;16.00;;;;;28.16;35.73;100523.97;5056635;28;45309;-75
2023/06/17 08:34:13;;;;;;;;;16.00;16.00;;;;;28.25;35.16;100522.91;5055951;28;46095;-74
2023/06/17 08:36:41;;;;;;;;;17.50;17.50;;;;;28.29;35.35;100518.81;5054892;28;45646;-73
2023/06/17 08:39:07;;;;;;;;;16.00;16.00;;;;;28.39;34.95;100524.81;5056343;28;45552;-71
2023/06/17 08:41:37;;;;;;;;;23.50;23.50;;;;;28.40;34.81;100522.97;5056071;28;45322;-71
2023/06/17 08:44:05;;;;;;;;;19.50;19.50;;;;;28.43;35.37;100520.75;5054530;28;45578;-72
2023/06/17 08:46:31;;;;;;;;;16.75;16.75;;;;;28.52;34.64;100512.56;5055434;28;45248;-71
2023/06/17 08:48:57;;;;;;;;;19.75;19.00;;;;;28.58;34.72;100517.22;5055628;28;45373;-71
2023/06/17 08:51:23;;;;;;;;;15.75;15.75;;;;;28.64;34.96;100508.41;5056016;28;45449;-73
2023/06/17 08:53:50;;;;;;;;;16.50;16.50;;;;;28.64;34.39;100503.00;5054409;28;46951;-73
2023/06/17 08:56:16;;;;;;;;;16.25;16.25;;;;;28.70;34.76;100513.09;5053929;28;45467;-72
2023/06/17 08:58:42;;;;;;;;;16.75;16.75;;;;;28.79;34.58;100508.47;5055146;28;45445;-72
2023/06/17 09:01:08;;;;;;;;;16.75;16.75;;;;;28.95;34.47;100517.44;5056045;28;45528;-78
2023/06/17 09:03:37;;;;;;;;;18.75;18.00;;;;;29.05;34.56;100509.06;5056590;28;46088;-75
2023/06/17 09:06:15;;;;;;;;;18.00;18.00;;;;;29.15;34.25;100513.16;5055567;28;45343;-75
2023/06/17 09:08:42;;;;;;;;;14.75;14.75;;;;;29.27;33.79;100505.44;5054862;28;45512;-71
2023/06/17 09:11:07;;;;;;;;;16.25;16.25;;;;;29.36;33.89;100502.63;5055450;28;45471;-73
2023/06/17 09:13:33;;;;;;;;;16.25;16.25;;;;;29.38;33.39;100489.72;5054924;28;45399;-70
2023/06/17 09:15:59;;;;;;;;;21.50;21.50;;;;;29.48;33.84;100495.72;5055436;28;45182;-71
2023/06/17 09:18:25;;;;;;;;;17.25;17.25;;;;;29.58;33.37;100501.69;5055512;28;45145;-70
2023/06/17 09:20:52;;;;;;;;;18.50;17.50;;;;;29.66;33.35;100502.59;5069602;28;45489;-70
2023/06/17 09:23:18;;;;;;;;;17.75;17.75;;;;;29.74;32.84;100506.06;5052759;28;48068;-70
2023/06/17 09:25:43;;;;;;;;;23.25;23.25;;;;;29.83;32.99;100503.25;5050405;28;45984;-71
2023/06/17 09:28:09;;;;;;;;;17.75;17.75;;;;;29.85;32.34;100502.03;5050427;28;45464;-72
2023/06/17 09:30:42;;;;;;;;;20.25;20.25;;;;;29.84;32.63;100496.78;5055129;28;45573;-69
2023/06/17 09:33:20;;;;;;;;;19.00;19.00;;;;;29.93;32.93;100498.34;5055626;28;46353;-73
2023/06/17 09:35:47;;;;;;;;;18.00;17.25;;;;;29.94;33.02;100499.19;5055316;28;45456;-68
2023/06/17 09:38:17;;;;;;;;;26.50;26.50;;;;;29.94;32.92;100502.72;5055000;28;45289;-71
2023/06/17 09:40:42;;;;;;;;;21.25;21.25;;;;;29.98;33.35;100503.19;5055279;28;45325;-72
2023/06/17 09:43:11;;;;;;;;;21.75;21.75;;;;;29.99;33.65;100496.75;5055832;28;45621;-71
2023/06/17 09:45:38;;;;;;;;;19.75;19.75;;;;;29.99;32.44;100503.03;5055863;28;45323;-72
2023/06/17 09:48:04;;;;;;;;;22.00;21.00;;;;;29.99;32.64;100494.03;5063715;28;45306;-73
2023/06/17 09:50:32;;;;;;;;;26.25;25.50;;;;;30.07;32.53;100493.94;5048756;27;45464;-75
2023/06/17 09:52:59;;;;;;;;;19.75;19.75;;;;;30.12;32.42;100486.06;5038552;28;46228;-72
2023/06/17 09:55:26;;;;;;;;;19.00;19.00;;;;;30.22;32.55;100490.31;5034068;28;45495;-75
2023/06/17 09:57:53;;;;;;;;;21.75;20.00;;;;;30.27;32.47;100493.31;5050388;28;45449;-71
2023/06/17 10:00:21;;;;;;;;;21.25;21.25;;;;;30.35;33.52;100495.06;5038424;28;45561;-79
2023/06/17 10:02:46;;;;;;;;;18.25;18.25;;;;;30.44;33.22;100491.16;5051965;28;45434;-78
2023/06/17 10:05:12;;;;;;;;;26.00;25.75;;;;;30.46;32.83;100480.94;5069258;28;45562;-78
2023/06/17 10:07:41;;;;;;;;;21.50;21.50;;;;;30.48;32.92;100468.03;5079576;27;45377;-72
2023/06/17 10:10:10;;;;;;;;;21.50;21.50;;;;;30.61;33.36;100489.03;5061568;28;45686;-77
2023/06/17 10:12:38;;;;;;;;;20.25;20.25;;;;;30.68;34.18;100486.38;5050269;28;45386;-78
2023/06/17 10:15:05;;;;;;;;;20.75;20.75;;;;;30.75;34.86;100490.84;5034445;28;45436;-74
2023/06/17 10:17:33;;;;;;;;;26.00;26.00;;;;;30.80;33.19;100483.97;5055552;28;45509;-77
2023/06/17 10:20:05;;;;;;;;;21.50;21.50;;;;;30.83;34.39;100478.97;5057763;28;45223;-79
2023/06/17 10:22:34;;;;;;;;;23.00;23.00;;;;;30.83;35.32;100475.44;5055909;28;45534;-73
2023/06/17 10:25:00;;;;;;;;;35.00;32.25;;;;;30.88;34.52;100472.94;5054459;28;45575;-72
2023/06/17 10:27:25;;;;;;;;;25.25;25.25;;;;;30.92;33.35;100474.22;5052899;28;45402;-72
2023/06/17 10:29:51;;;;;;;;;22.25;22.25;;;;;30.87;32.76;100474.00;5054290;28;45545;-72
2023/06/17 10:32:24;;;;;;;;;23.75;23.75;;;;;30.82;35.03;100469.13;5053960;28;45398;-72
2023/06/17 10:35:05;;;;;;;;;21.50;21.50;;;;;30.88;32.76;100465.63;5032058;28;45264;-75
2023/06/17 10:37:32;;;;;;;;;23.00;23.00;;;;;30.84;33.69;100464.34;5032317;28;45383;-72
2023/06/17 10:40:24;;;;;;;;;23.50;23.50;;;;;30.86;34.03;100465.00;5054036;28;45667;-74
2023/06/17 10:42:57;;;;;;;;;24.75;24.75;;;;;30.92;33.28;100457.94;5056124;28;45926;-77
2023/06/17 10:45:22;;;;;;;;;24.25;24.25;;;;;30.93;33.32;100462.31;5046986;28;45556;-75
2023/06/17 10:47:48;;;;;;;;;31.75;29.50;;;;;30.92;33.11;100443.50;5049880;28;45481;-74
2023/06/17 10:50:13;;;;;;;;;29.75;28.50;;;;;30.98;32.92;100453.56;5054342;28;45303;-73
2023/06/17 10:52:39;;;;;;;;;22.75;22.75;;;;;30.94;35.88;100439.56;5051817;28;46357;-70
2023/06/17 10:55:04;;;;;;;;;40.00;34.50;;;;;31.03;34.63;100461.94;5054588;27;45872;-74
2023/06/17 10:57:35;;;;;;;;;33.00;30.75;;;;;30.95;32.94;100443.09;5052267;28;45517;-70
2023/06/17 11:00:06;;;;;;;;;105.00;102.25;;;;;30.93;33.70;100447.91;5040261;28;46832;-69
2023/06/17 11:02:32;;;;;;;;;149.00;144.50;;;;;30.95;34.98;100438.53;5036011;28;46274;-70
2023/06/17 11:04:57;;;;;;;;;111.00;108.75;;;;;30.98;33.91;100440.00;5036265;28;45480;-69
2023/06/17 11:07:26;;;;;;;;;249.50;235.75;;;;;30.93;35.44;100437.88;5037399;28;45351;-69